Tiempo atmosférico en la estación meteorológica de Sant Pau De Seguries, Girona (863 m.)



Fecha
DESCASC
Temp. máxima en grados centígrados (hora)
DESCASC
Temp. mínima en grados centígrados (hora)
DESCASC
Temp. media en grados centígrados
DESCASC
Racha de viento máxima en m/sg (hora)
DESCASC
Velocidad máxima media en intervalos de 10 minutos(hora)
DESCASC
Precipitaciones diarias en mm
DESCASC
Precipitaciones de 00:00 a 06:00 en mm
DESCASC
Precipitaciones de 06:00 a 12:00 en mm
DESCASC
Precipitaciones de 12:00 a 18:00 en mm
DESCASC
Precipitaciones de 18:00 a 24:00 en mm
DESCASC
16-01-2020 11.4 (14:20) -4.4 (08:10) 3.5 7.78 (15:00) 3.89 (15:20) 0 0 0 0 0
15-01-2020 9.6 (14:50) -2.4 (08:30) 3.6 7.5 (03:50) 3.89 (05:20) 0 0 0 0 0
14-01-2020 9.5 (15:30) -5.1 (05:40) 2.2 10.83 (14:10) 5.56 (14:00) 0 0 0 0 0
13-01-2020 9.1 (13:50) -6.3 (08:20) 1.4 8.61 (22:30) 3.61 (22:30) 0 0 0 0 0
12-01-2020 11.1 (14:30) -6.6 (-00:0) 2.3 4.17 (14:10) 2.5 (22:50) 0 0 0 0 0
11-01-2020 9.5 (14:00) -3.7 (-00:0) 2.9 5.28 (04:40) 2.5 (04:50) 0 0 0 0 0
10-01-2020 8.6 (14:50) -1.4 (-00:0) 3.6 6.39 (12:10) 3.33 (11:40) 1.8 0.2 1.6 0 0
09-01-2020 10.8 (13:40) -2.7 (-00:0) 4.1 12.5 (16:00) 5.56 (16:10) 0 0 0 0 0
08-01-2020 12.5 (13:10) -1.7 (-00:0) 5.4 4.17 (08:20) 2.78 (08:20) 0 0 0 0 0
07-01-2020 12.9 (14:00) -2.8 (-00:0) 5 5.83 (05:30) 2.78 (06:20) 0 0 0 0 0
06-01-2020 10.7 (13:50) -4 (-00:0) 3.3 4.17 (02:20) 2.22 (01:00) 0 0 0 0 0
05-01-2020 15.9 (14:00) -3.7 (-00:0) 6.1 4.17 (22:30) 2.22 (22:30) 0 0 0 0 0
04-01-2020 12.3 (14:30) -4 (-00:0) 4.2 4.17 (20:20) 1.94 (13:00) 0 0 0 0 0
03-01-2020 11 (14:10) -2.5 (-00:0) 4.3 3.89 (02:10) 2.5 (09:00) 0 0 0 0 0
02-01-2020 11.7 (14:40) -2.9 (-00:0) 4.4 5.83 (14:00) 2.78 (04:20) 0 0 0 0 0
01-01-2020 12.1 (13:30) -3.6 (-00:0) 4.3 3.33 (15:00) 1.67 (14:10) 0 0 0 0 0
31-12-2019 -- (--) -- (--) -- -- (--) -- (--) -- 0 0 0 --
30-12-2019 10.8 (14:40) 0 (00:00) 5.4 5.83 (07:00) 3.06 (10:00) 0 0 0 0 0
29-12-2019 10.3 (14:30) -3.4 (-00:0) 3.5 4.17 (23:00) 2.22 (23:59) 0 0 0 0 0
28-12-2019 10.7 (13:10) -1.9 (-00:0) 4.4 5 (01:10) 2.5 (01:00) 0 0 0 0 0
27-12-2019 8.1 (15:10) -1.4 (-00:0) 3.4 4.72 (12:20) 2.5 (06:20) 0 0 0 0 0
26-12-2019 14.1 (14:50) 0.2 (00:00) 7.2 4.17 (10:00) 1.94 (10:00) 0 0 0 0 0
25-12-2019 16.4 (14:20) 0.6 (00:00) 8.5 3.61 (08:40) 2.22 (08:40) 0 0 0 0 0
24-12-2019 14.7 (14:30) -1.4 (-00:0) 6.6 3.61 (00:40) 1.94 (00:40) 0 0 0 0 0
23-12-2019 10.2 (14:00) 0 (00:00) 5.1 6.39 (02:50) 1.94 (05:50) 0 0 0 0 0
22-12-2019 11.7 (13:40) 1.9 (00:00) 6.8 10.28 (14:40) 3.89 (15:00) 1.4 1.4 0 0 0
21-12-2019 11.9 (13:40) 4.4 (00:00) 8.1 12.22 (13:50) 5 (15:10) 13.4 1.2 0 3.4 8.8
20-12-2019 -- (--) -- (--) -- -- (--) -- (--) -- -- 21.6 0 6.2

Gráficas

Temp. máximas Temp. mínimas Temp. medias Precipitaciones Rachas de viento máximas Velocidades máximas media en intervalos de 10 minutos

Datos horarios

Fecha y hora oficial Temperatura (ºC) Velocidad del viento (km/h) Dirección del viento Racha (km/h) Dirección de racha Precipitación (mm) Presión (hPa) Tendencia (hPa) Humedad (%)
2020-01-18 23:00:00 1.1 5 Nordeste 9 Nordeste 0 -- -- 95
2020-01-18 22:00:00 0.7 0 Calma 6 Oeste 0 -- -- 94
2020-01-18 21:00:00 2.1 2 Nordeste 6 Nordeste 0 -- -- 93
2020-01-18 20:00:00 2.2 2 Nordeste 5 Norte 0 -- -- 97
2020-01-18 19:00:00 2.1 0 Calma 5 Sudeste 0 -- -- 92
2020-01-18 18:00:00 4.4 0 Calma 10 Este 0 -- -- 83
2020-01-18 17:00:00 7.1 3 Sudeste 22 Oeste 0 -- -- 73
2020-01-18 16:00:00 8.2 12 Sudoeste 27 Oeste 0 -- -- 60
2020-01-18 15:00:00 9.6 12 Sudoeste 25 Sudoeste 0 -- -- 54
2020-01-18 14:00:00 9.3 9 Sudoeste 25 Oeste 0 -- -- 52
2020-01-18 13:00:00 7.3 11 Sudoeste 22 Oeste 0 -- -- 68
2020-01-18 12:00:00 3.5 9 Sudoeste 18 Sur 0 -- -- 81
2020-01-18 11:00:00 1.6 5 Sudoeste 10 Sur 0 -- -- 91
2020-01-18 10:00:00 -0.7 0 Calma 10 Oeste 0 -- -- 100
2020-01-18 09:00:00 -1.7 2 Oeste 10 Sur 0 -- -- 100
2020-01-18 08:00:00 -1.9 4 Sudoeste 9 Sur 0 -- -- 100
2020-01-18 07:00:00 -2.2 0 Calma 4 Oeste 0 -- -- 100
2020-01-18 06:00:00 -2.6 3 Sudeste 5 Sudeste 0 -- -- 100
2020-01-18 05:00:00 -3.3 0 Calma 5 Sudoeste 0 -- -- 98
2020-01-18 04:00:00 -3 2 Sudoeste 5 Sudoeste 0 -- -- 95
2020-01-18 03:00:00 -2.5 0 Calma 5 Sudeste 0 -- -- 94
2020-01-18 02:00:00 -1 2 Sudoeste 12 Nordeste 0 -- -- 88
2020-01-18 01:00:00 -0.5 6 Este 14 Nordeste 0 -- -- 87
2020-01-18 00:00:00 -0.1 6 Nordeste 13 Nordeste 0 -- -- 84
2020-01-17 23:00:00 0 6 Este 10 Este 0 -- -- 87
2020-01-17 22:00:00 0.3 4 Este 9 Sudeste 0 -- -- 89
2020-01-17 21:00:00 1 6 Nordeste 11 Nordeste 0 -- -- 92
2020-01-17 20:00:00 1.3 3 Norte 11 Norte 0 -- -- 93
2020-01-17 19:00:00 2.4 4 Norte 11 Noroeste 0 -- -- 92
2020-01-17 18:00:00 4.4 3 Sudoeste 23 Oeste 0.4 -- -- 87
2020-01-17 17:00:00 7.2 10 Noroeste 30 Noroeste 2.2 -- -- 73
2020-01-17 16:00:00 11.6 10 Sudoeste 23 Oeste 0 -- -- 59
2020-01-17 15:00:00 12.3 9 Sudoeste 26 Oeste 0 -- -- 58
2020-01-17 14:00:00 11.7 9 Sudoeste 28 Oeste 0 -- -- 64
2020-01-17 13:00:00 10.8 11 Sudoeste 24 Sudoeste 0 -- -- 67
2020-01-17 12:00:00 9.3 11 Sudoeste 24 Sudoeste 0 -- -- 71
2020-01-17 11:00:00 7.2 9 Sudoeste 18 Sudoeste 0 -- -- 81
2020-01-17 10:00:00 3.9 8 Sudoeste 19 Oeste 0 -- -- 95
2020-01-17 09:00:00 3 8 Sudoeste 23 Oeste 0 -- -- 92
2020-01-17 08:00:00 3.9 6 Sudoeste 24 Sudoeste 0 -- -- 84
2020-01-17 07:00:00 5.3 10 Sudoeste 24 Sudoeste 0 -- -- 78
2020-01-17 06:00:00 4.8 12 Oeste 31 Sudoeste 0 -- -- 81
2020-01-17 05:00:00 5.1 13 Sudoeste 26 Sudoeste 0 -- -- 82
2020-01-17 04:00:00 5.6 9 Sudoeste 33 Sur 0 -- -- 82
2020-01-17 03:00:00 5.1 10 Sudoeste 29 Sudoeste 0 -- -- 86
2020-01-17 02:00:00 3.7 8 Sudoeste 35 Oeste 0 -- -- 91
2020-01-17 01:00:00 4.4 10 Sudoeste 27 Sudoeste 0 -- -- 92
2020-01-17 00:00:00 1 5 Sudoeste 13 Oeste 0 -- -- 98
2020-01-16 23:00:00 1.5 0 Calma 13 Sudoeste 0 -- -- 93
2020-01-16 22:00:00 3.2 6 Sudoeste 24 Oeste 0 -- -- 89
2020-01-16 21:00:00 5.2 13 Sudoeste 22 Oeste 0 -- -- 85
2020-01-16 20:00:00 5.1 5 Sudoeste 12 Sudoeste 0 -- -- 85
2020-01-16 19:00:00 5.7 5 Sudoeste 13 Sudoeste 0 -- -- 82
2020-01-16 18:00:00 7.3 4 Sudoeste 16 Sudoeste 0 -- -- 74
2020-01-16 17:00:00 9.9 6 Sudoeste 18 Oeste 0 -- -- 64
2020-01-16 16:00:00 10.5 9 Sudoeste 26 Sudoeste 0 -- -- 59
2020-01-16 15:00:00 11 13 Sudoeste 28 Oeste 0 -- -- 56
2020-01-16 14:00:00 11.2 11 Sudoeste 24 Oeste 0 -- -- 53
2020-01-16 13:00:00 10.2 9 Sudoeste 21 Oeste 0 -- -- 54
2020-01-16 12:00:00 7.3 5 Sudoeste 18 Sudoeste 0 -- -- 66
2020-01-16 11:00:00 1.9 3 Sur 7 Sudoeste 0 -- -- 86
2020-01-16 10:00:00 -3.2 2 Sudoeste 6 Sur 0 -- -- 100
2020-01-16 09:00:00 -4.2 0 Calma 5 Sudoeste 0 -- -- 99
2020-01-16 08:00:00 -4.3 0 Calma 3 Sur 0 -- -- 97
2020-01-16 07:00:00 -4 0 Calma 3 Sur 0 -- -- 97
2020-01-16 06:00:00 -3.6 0 Calma 4 Sudoeste 0 -- -- 96
2020-01-16 05:00:00 -2.8 2 Sudoeste 6 Sudoeste 0 -- -- 94
2020-01-16 04:00:00 -2.2 0 Calma 4 Sudoeste 0 -- -- 92
2020-01-16 03:00:00 -1.6 2 Este 6 Este 0 -- -- 87
2020-01-16 02:00:00 -0.2 3 Este 12 Este 0 -- -- 79
2020-01-16 01:00:00 0.1 6 Nordeste 12 Nordeste 0 -- -- 77
2020-01-16 00:00:00 -1.3 2 Este 6 Este 0 -- -- 89
2020-01-15 23:00:00 -2.1 0 Calma 3 Norte 0 -- -- 95
2020-01-15 22:00:00 -1.4 0 Calma 5 Sudeste 0 -- -- 92
2020-01-15 21:00:00 0.3 4 Este 10 Este 0 -- -- 85
2020-01-15 20:00:00 0 2 Sur 4 Sur 0 -- -- 87
2020-01-15 19:00:00 2.2 2 Sudoeste 8 Sur 0 -- -- 82
2020-01-15 18:00:00 4.7 4 Sur 12 Sudoeste 0 -- -- 72
2020-01-15 17:00:00 8.4 4 Sudoeste 13 Oeste 0 -- -- 61
2020-01-15 16:00:00 8.8 5 Sudoeste 18 Sudoeste 0 -- -- 55
2020-01-15 15:00:00 9.4 9 Sudoeste 19 Oeste 0 -- -- 51
2020-01-15 14:00:00 8.1 10 Sudoeste 25 Sudoeste 0 -- -- 58
2020-01-15 13:00:00 6.2 12 Sudoeste 25 Sudoeste 0 -- -- 62
2020-01-15 12:00:00 5.5 12 Sudoeste 27 Sudoeste 0 -- -- 65
2020-01-15 11:00:00 2.8 6 Sudoeste 20 Sur 0 -- -- 77
2020-01-15 10:00:00 -1.1 10 Sudoeste 21 Sudoeste 0 -- -- 93
2020-01-15 09:00:00 -2.1 9 Sudoeste 18 Sudoeste 0 -- -- 96
2020-01-15 08:00:00 -2 8 Sudoeste 19 Oeste 0 -- -- 96
2020-01-15 07:00:00 -1.2 10 Sudoeste 26 Oeste 0 -- -- 94
2020-01-15 06:00:00 -0.7 11 Sudoeste 25 Sudoeste 0 -- -- 94
2020-01-15 05:00:00 -0.4 12 Sudoeste 25 Oeste 0 -- -- 93
2020-01-15 04:00:00 -0.4 12 Sudoeste 27 Oeste 0 -- -- 90
2020-01-15 03:00:00 0.1 10 Sudoeste 26 Sudoeste 0 -- -- 87
2020-01-15 02:00:00 0.1 10 Sudoeste 25 Sudoeste 0 -- -- 83
2020-01-15 01:00:00 -0.1 13 Sudoeste 24 Sudoeste 0 -- -- 83
2020-01-15 00:00:00 0.2 13 Sudoeste 27 Sudoeste 0 -- -- 81
2020-01-14 23:00:00 0.7 12 Sudoeste 23 Sudoeste 0 -- -- 81
2020-01-14 22:00:00 1.5 10 Sudoeste 19 Sudoeste 0 -- -- 79
2020-01-14 21:00:00 2.5 8 Sudoeste 21 Sudoeste 0 -- -- 75
2020-01-14 20:00:00 3.6 10 Sudoeste 25 Oeste 0 -- -- 71
2020-01-14 19:00:00 5.5 13 Sudoeste 30 Sudoeste 0 -- -- 62
2020-01-14 18:00:00 7 12 Sudoeste 33 Oeste 0 -- -- 58
2020-01-14 17:00:00 8.5 15 Sudoeste 32 Oeste 0 -- -- 51
2020-01-14 16:00:00 9 14 Sudoeste 35 Oeste 0 -- -- 47
2020-01-14 15:00:00 9 15 Sudoeste 39 Oeste 0 -- -- 47
2020-01-14 14:00:00 8.2 20 Sudoeste 39 Sudoeste 0 -- -- 49
2020-01-14 13:00:00 7.3 18 Sudoeste 36 Sudoeste 0 -- -- 50
2020-01-14 12:00:00 5.9 14 Sudoeste 30 Sudoeste 0 -- -- 58
2020-01-14 11:00:00 2.1 12 Sudoeste 27 Sudoeste 0 -- -- 76
2020-01-14 10:00:00 -2.7 8 Sudoeste 20 Oeste 0 -- -- 95
2020-01-14 09:00:00 -3.3 6 Sur 22 Oeste 0 -- -- 93
2020-01-14 08:00:00 -3.5 6 Sur 17 Sur 0 -- -- 98
2020-01-14 07:00:00 -4 8 Sudoeste 13 Sudoeste 0 -- -- 100
2020-01-14 06:00:00 -5.1 2 Sudoeste 6 Oeste 0 -- -- 98
2020-01-14 05:00:00 -4.7 2 Sudoeste 5 Oeste 0 -- -- 97
2020-01-14 04:00:00 -4.1 0 Calma 5 Sudeste 0 -- -- 95
2020-01-14 03:00:00 -3.1 2 Norte 6 Sur 0 -- -- 93
2020-01-14 02:00:00 -2.5 3 Sur 16 Sudoeste 0 -- -- 93
2020-01-14 01:00:00 -1.5 7 Sudoeste 22 Sudoeste 0 -- -- 90
2020-01-14 00:00:00 -0.9 12 Sudoeste 23 Sudoeste 0 -- -- 89
2020-01-13 23:00:00 -0.7 10 Sudoeste 31 Sudoeste 0 -- -- 91
2020-01-13 22:00:00 -0.9 6 Sudoeste 21 Sudoeste 0 -- -- 93
2020-01-13 21:00:00 -2.1 0 Calma 4 Sur 0 -- -- 94
2020-01-13 20:00:00 -0.4 0 Calma 5 Sudeste 0 -- -- 89
2020-01-13 19:00:00 1.3 0 Calma 6 Sur 0 -- -- 87
2020-01-13 18:00:00 2.9 0 Calma 6 Nordeste 0 -- -- 80
2020-01-13 17:00:00 5.9 2 Nordeste 9 Este 0 -- -- 67
2020-01-13 16:00:00 7.2 7 Sudeste 13 Sudeste 0 -- -- 56
2020-01-13 15:00:00 8.6 5 Sudeste 13 Sudeste 0 -- -- 49
2020-01-13 14:00:00 9.1 7 Sur 12 Sudeste 0 -- -- 45
2020-01-13 13:00:00 8 5 Nordeste 11 Nordeste 0 -- -- 45
2020-01-13 12:00:00 6.3 2 Norte 6 Nordeste 0 -- -- 53
2020-01-13 11:00:00 0.4 0 Calma 3 Sur 0 -- -- 69
2020-01-13 10:00:00 -4.9 0 Calma 2 Sudeste 0 -- -- 96
2020-01-13 09:00:00 -6.1 2 Sur 4 Sudeste 0 -- -- 96
2020-01-13 08:00:00 -6.1 0 Calma 7 Sudoeste 0 -- -- 96
2020-01-13 07:00:00 -5.7 4 Sudoeste 7 Sudoeste 0 -- -- 96
2020-01-13 06:00:00 -5.6 0 Calma 4 Norte 0 -- -- 97
2020-01-13 05:00:00 -5.4 2 Sudoeste 5 Sur 0 -- -- 96
2020-01-13 04:00:00 -4.8 2 Sudoeste 6 Sudoeste 0 -- -- 94
2020-01-13 03:00:00 -3.8 0 Calma 10 Sudoeste 0 -- -- 93
2020-01-13 02:00:00 -3 6 Sur 12 Sudoeste 0 -- -- 91
2020-01-13 01:00:00 -2.4 6 Sur 12 Sur 0 -- -- 90
2020-01-13 00:00:00 -2 7 Sur 15 Sudoeste 0 -- -- 89
2020-01-12 23:00:00 -1.5 7 Sudoeste 15 Sudoeste 0 -- -- 88
2020-01-12 22:00:00 -1.7 2 Sur 5 Sur 0 -- -- 90
2020-01-12 21:00:00 -1.9 0 Calma 3 Sur 0 -- -- 90
2020-01-12 20:00:00 -1.1 0 Calma 3 Sur 0 -- -- 85
2020-01-12 19:00:00 0.7 0 Calma 5 Sur 0 -- -- 79
2020-01-12 18:00:00 3.2 4 Sur 8 Sur 0 -- -- 67
2020-01-12 17:00:00 6 5 Sudoeste 10 Sudoeste 0 -- -- 56
2020-01-12 16:00:00 8.4 5 Sur 12 Sur 0 -- -- 58
2020-01-12 15:00:00 10.3 6 Sur 15 Sur 0 -- -- 50
2020-01-12 14:00:00 10.8 6 Sudoeste 13 Sudoeste 0 -- -- 38
2020-01-12 13:00:00 9.1 4 Sur 7 Sudoeste 0 -- -- 44
2020-01-12 12:00:00 6 0 Calma 4 Sudeste 0 -- -- 59
2020-01-12 11:00:00 -0.4 2 Sur 5 Sudeste 0 -- -- 82
2020-01-12 10:00:00 -5.8 0 Calma 4 Sur 0 -- -- 98
2020-01-12 09:00:00 -6.4 0 Calma 5 Sur 0 -- -- 98
2020-01-12 08:00:00 -6.6 3 Sudoeste 5 Sur 0 -- -- 97
2020-01-12 07:00:00 -6.5 0 Calma 5 Sur 0 -- -- 97
2020-01-12 06:00:00 -6.1 2 Sudoeste 4 Sur 0 -- -- 97
2020-01-12 05:00:00 -5.7 2 Sur 3 Sur 0 -- -- 97
2020-01-12 04:00:00 -5.6 0 Calma 4 Sudeste 0 -- -- 98
2020-01-12 03:00:00 -5.3 0 Calma 4 Sur 0 -- -- 99
2020-01-12 02:00:00 -5.1 0 Calma 3 Sur 0 -- -- 99
2020-01-12 01:00:00 -4.5 0 Calma 4 Sur 0 -- -- 100
2020-01-12 00:00:00 -3.7 0 Calma 5 Sur 0 -- -- 99
2020-01-11 23:00:00 -3.4 0 Calma 4 Sudoeste 0 -- -- 98
2020-01-11 22:00:00 -2.9 2 Sur 4 Sur 0 -- -- 96
2020-01-11 21:00:00 -1.9 0 Calma 5 Este 0 -- -- 95
2020-01-11 20:00:00 -0.6 0 Calma 6 Nordeste 0 -- -- 92
2020-01-11 19:00:00 0.6 3 Este 5 Nordeste 0 -- -- 92
2020-01-11 18:00:00 2.3 0 Calma 5 Norte 0 -- -- 88
2020-01-11 17:00:00 4.9 2 Sur 8 Sudeste 0 -- -- 81
2020-01-11 16:00:00 7.6 3 Sur 12 Este 0 -- -- 69
2020-01-11 15:00:00 8.3 9 Este 13 Este 0 -- -- 63
2020-01-11 14:00:00 9.5 5 Sur 10 Sur 0 -- -- 60
2020-01-11 13:00:00 8.2 3 Sudeste 8 Este 0 -- -- 68
2020-01-11 12:00:00 4.3 2 Sur 5 Sudeste 0 -- -- 100
2020-01-11 11:00:00 -0.1 2 Sur 5 Sudeste 0 -- -- 100
2020-01-11 10:00:00 -3.2 0 Calma 8 Sudoeste 0 -- -- 100
2020-01-11 09:00:00 -3.3 2 Sudoeste 5 Sur 0 -- -- 100
2020-01-11 08:00:00 -2.7 3 Oeste 6 Oeste 0 -- -- 100
2020-01-11 07:00:00 -2.1 3 Oeste 15 Oeste 0 -- -- 100
2020-01-11 06:00:00 -1.7 8 Sudoeste 16 Oeste 0 -- -- 100
2020-01-11 05:00:00 -1.4 6 Oeste 19 Sudoeste 0 -- -- 100
2020-01-11 04:00:00 -0.6 8 Sudoeste 17 Sudoeste 0 -- -- 100
2020-01-11 03:00:00 -0.3 5 Sudoeste 17 Oeste 0 -- -- 100
2020-01-11 02:00:00 0.2 6 Sudoeste 18 Oeste 0 -- -- 100
2020-01-11 01:00:00 -0.5 3 Sudoeste 8 Sudoeste 0 -- -- 100
2020-01-11 00:00:00 -1.4 3 Sur 6 Sudoeste 0 -- -- 100
2020-01-10 23:00:00 -0.3 0 Calma 12 Nordeste 0 -- -- 99
2020-01-10 22:00:00 0.4 3 Nordeste 9 Sudeste 0 -- -- 100
2020-01-10 21:00:00 0.6 4 Norte 11 Sudeste 0 -- -- 100
2020-01-10 20:00:00 0.9 0 Calma 3 Sur 0 -- -- 98
2020-01-10 19:00:00 2.1 0 Calma 6 Sur 0 -- -- 96
2020-01-10 18:00:00 3.8 4 Sur 9 Sudoeste 0 -- -- 93
2020-01-10 17:00:00 6.4 3 Sur 16 Sudoeste 0 -- -- 85
2020-01-10 16:00:00 8 10 Sudoeste 19 Sudoeste 0 -- -- 82
2020-01-10 15:00:00 8.5 6 Sudoeste 18 Oeste 0 -- -- 79
2020-01-10 14:00:00 7.1 8 Sudoeste 23 Sudoeste 0 -- -- 86
2020-01-10 13:00:00 7 10 Sudoeste 23 Oeste 0 -- -- 88
2020-01-10 12:00:00 5.4 10 Sudoeste 22 Oeste 0 -- -- 100
2020-01-10 11:00:00 4.6 9 Sudoeste 17 Oeste 0 -- -- 100
2020-01-10 10:00:00 4.3 6 Sudoeste 14 Sudoeste 0 -- -- 100
2020-01-10 09:00:00 4 3 Sudoeste 5 Oeste 0 -- -- 100
2020-01-10 08:00:00 4.1 0 Calma 4 Nordeste 0.2 -- -- 100
2020-01-10 07:00:00 4.4 0 Calma 11 Sudeste 1.4 -- -- 100
2020-01-10 06:00:00 4.6 5 Sudeste 14 Sudeste 0.2 -- -- 98
2020-01-10 05:00:00 4.5 0 Calma 5 Nordeste 0 -- -- 89
2020-01-10 04:00:00 4.8 2 Este 12 Sudeste 0 -- -- 90
2020-01-10 03:00:00 4.5 3 Nordeste 8 Sudeste 0 -- -- 83
2020-01-10 02:00:00 4.3 5 Nordeste 8 Nordeste 0 -- -- 80
2020-01-10 01:00:00 4 0 Calma 10 Sur 0 -- -- 86
2020-01-10 00:00:00 4.6 9 Sur 37 Oeste 0 -- -- 84
2020-01-09 23:00:00 5.6 19 Oeste 36 Oeste 0 -- -- 77
2020-01-09 22:00:00 5.8 16 Sudoeste 35 Oeste 0 -- -- 78
2020-01-09 21:00:00 6.5 13 Oeste 38 Oeste 0 -- -- 73
2020-01-09 20:00:00 6.5 18 Sudoeste 41 Sudoeste 0 -- -- 74
2020-01-09 19:00:00 7.1 17 Sudoeste 36 Oeste 0 -- -- 73
2020-01-09 18:00:00 8.1 10 Oeste 37 Oeste 0 -- -- 67
2020-01-09 17:00:00 9.6 9 Sudoeste 41 Sudoeste 0 -- -- 65
2020-01-09 16:00:00 10.1 19 Sudoeste 45 Sudoeste 0 -- -- 65
2020-01-09 15:00:00 10.3 17 Sudoeste 40 Sudoeste 0 -- -- 63
2020-01-09 14:00:00 10.8 16 Sudoeste 37 Sudoeste 0 -- -- 63
2020-01-09 13:00:00 10.4 17 Sudoeste 38 Oeste 0 -- -- 65
2020-01-09 12:00:00 8 12 Sudoeste 27 Sudoeste 0 -- -- 76
2020-01-09 11:00:00 3.7 12 Sudoeste 24 Oeste 0 -- -- 100
2020-01-09 10:00:00 -0.2 6 Sudoeste 13 Sudoeste 0 -- -- 100
2020-01-09 09:00:00 -1.1 7 Sudoeste 17 Sudoeste 0 -- -- 100
2020-01-09 08:00:00 -1.6 3 Sur 7 Sudeste 0 -- -- 100
2020-01-09 07:00:00 -2.6 0 Calma 4 Sur 0 -- -- 100
2020-01-09 06:00:00 -2.3 0 Calma 3 Sur 0 -- -- 100
2020-01-09 05:00:00 -1.2 2 Oeste 5 Sur 0 -- -- 100
2020-01-09 04:00:00 -0.7 2 Sur 9 Sur 0 -- -- 100
2020-01-09 03:00:00 -0.3 3 Sudoeste 9 Sudoeste -- -- -- 100
2020-01-09 02:00:00 0 3 Sur 6 Sur 0 -- -- 100
2020-01-09 01:00:00 0.5 0 Calma 5 Sur 0 -- -- 100
2020-01-09 00:00:00 0 0 Calma 5 Sudoeste 0 -- -- 100
2020-01-08 23:00:00 0 0 Calma 5 Sur 0 -- -- 99
2020-01-08 22:00:00 0.8 0 Calma 3 Norte 0 -- -- 98
2020-01-08 21:00:00 1.9 2 Oeste 5 Sudeste 0 -- -- 96
2020-01-08 20:00:00 3.2 0 Calma 6 Nordeste 0 -- -- 94
2020-01-08 19:00:00 4 0 Calma 4 Nordeste 0 -- -- 91
2020-01-08 18:00:00 6.4 0 Calma 5 Nordeste 0 -- -- 83
2020-01-08 17:00:00 9.7 4 Nordeste 15 Este 0 -- -- 76
2020-01-08 16:00:00 11.1 5 Este 12 Este 0 -- -- 73
2020-01-08 15:00:00 11.7 5 Este 11 Este 0 -- -- 70
2020-01-08 14:00:00 12.3 6 Sudeste 15 Este 0 -- -- 65
2020-01-08 13:00:00 12.2 4 Este 13 Sudeste 0 -- -- 63
2020-01-08 12:00:00 10.7 6 Este 15 Este 0 -- -- 63
2020-01-08 11:00:00 6.8 4 Sudeste 12 Este 0 -- -- 65
2020-01-08 10:00:00 2.3 6 Nordeste 10 Nordeste 0 -- -- 73
2020-01-08 09:00:00 1.4 5 Nordeste 15 Nordeste 0 -- -- 76
2020-01-08 08:00:00 1.7 8 Este 14 Nordeste 0 -- -- 73
2020-01-08 07:00:00 1.9 5 Este 14 Este 0 -- -- 73
2020-01-08 06:00:00 1.1 4 Este 10 Este 0 -- -- 78
2020-01-08 05:00:00 -1.1 0 Calma 9 Sudeste 0 -- -- 94
2020-01-08 04:00:00 -1.5 3 Sur 8 Sur 0 -- -- 93
2020-01-08 03:00:00 -1.3 2 Sudoeste 8 Sudeste 0 -- -- 94
2020-01-08 02:00:00 -1.4 0 Calma 8 Sudeste 0 -- -- 95
2020-01-08 01:00:00 -0.9 3 Sur 5 Sudeste 0 -- -- 94
2020-01-08 00:00:00 -0.2 3 Sudoeste 7 Sudoeste 0 -- -- 92
2020-01-07 23:00:00 0.8 0 Calma 6 Sur 0 -- -- 89
2020-01-07 22:00:00 1.4 3 Sudoeste 8 Sur 0 -- -- 90
2020-01-07 21:00:00 1.3 0 Calma 6 Sudoeste 0 -- -- 90
2020-01-07 20:00:00 1.8 3 Sudeste 6 Sur 0 -- -- 88
2020-01-07 19:00:00 3.3 0 Calma 4 Norte 0 -- -- 82
2020-01-07 18:00:00 5.6 0 Calma 5 Norte 0 -- -- 74
2020-01-07 17:00:00 9.8 0 Calma 8 Nordeste 0 -- -- 63
2020-01-07 16:00:00 12.1 0 Calma 9 Nordeste 0 -- -- 54
2020-01-07 15:00:00 12.3 2 Sudeste 13 Oeste 0 -- -- 47
2020-01-07 14:00:00 12.9 7 Sudoeste 16 Oeste 0 -- -- 42
2020-01-07 13:00:00 10.1 6 Sudoeste 16 Sudoeste 0 -- -- 60
2020-01-07 12:00:00 6.9 4 Sudoeste 9 Sur 0 -- -- 77
2020-01-07 11:00:00 1.8 3 Sudoeste 6 Sur 0 -- -- 100
2020-01-07 10:00:00 -1.8 0 Calma 6 Sudoeste 0 -- -- 100
2020-01-07 09:00:00 -2.7 2 Oeste 8 Sudoeste 0 -- -- 100
2020-01-07 08:00:00 -2.6 0 Calma 12 Sur 0 -- -- 99
2020-01-07 07:00:00 -2.1 9 Sudoeste 18 Sudoeste 0 -- -- 100
2020-01-07 06:00:00 -2 7 Sur 21 Sudoeste 0 -- -- 100
2020-01-07 05:00:00 -2.1 4 Sur 13 Sudoeste 0 -- -- 100
2020-01-07 04:00:00 -2.3 4 Sudeste 8 Sudoeste 0 -- -- 100
2020-01-07 03:00:00 -1.8 3 Sudoeste 9 Oeste 0 -- -- 100
2020-01-07 02:00:00 -1.2 2 Sudoeste 12 Sudoeste 0 -- -- 100
2020-01-07 01:00:00 -1 3 Sudoeste 5 Sudoeste 0 -- -- 98
2020-01-07 00:00:00 -0.8 3 Sur 8 Este 0 -- -- 94
2020-01-06 23:00:00 0.7 4 Nordeste 9 Nordeste 0 -- -- 90
2020-01-06 22:00:00 0.7 5 Nordeste 11 Este 0 -- -- 93
2020-01-06 21:00:00 0.4 0 Calma 8 Nordeste 0 -- -- 92
2020-01-06 20:00:00 2.1 4 Nordeste 8 Nordeste 0 -- -- 89
2020-01-06 19:00:00 2.8 5 Nordeste 9 Nordeste 0 -- -- 87
2020-01-06 18:00:00 4.3 3 Nordeste 6 Nordeste 0 -- -- 83
2020-01-06 17:00:00 7.2 0 Calma 7 Este 0 -- -- 73
2020-01-06 16:00:00 9.5 4 Este 10 Este 0 -- -- 62
2020-01-06 15:00:00 10.3 4 Sudeste 11 Este 0 -- -- 59
2020-01-06 14:00:00 10.5 6 Este 11 Sudeste 0 -- -- 56
2020-01-06 13:00:00 10.6 3 Sur 10 Sur 0 -- -- 56
2020-01-06 12:00:00 7.6 0 Calma 6 Sudoeste 0 -- -- 64
2020-01-06 11:00:00 2.1 2 Sur 5 Sur 0 -- -- 83
2020-01-06 10:00:00 -3 0 Calma 3 Sudeste 0 -- -- 99